createdAt,value
2022-11-16T00:01:31.371Z,6.95
2022-11-16T00:04:03.884Z,8.10
2022-11-16T00:06:34.259Z,7.18
2022-11-16T00:09:23.143Z,8.80
2022-11-16T00:11:55.932Z,6.80
2022-11-16T00:14:28.945Z,7.30
2022-11-16T00:17:00.222Z,6.50
2022-11-16T00:19:31.006Z,7.22
2022-11-16T00:22:01.615Z,7.32
2022-11-16T00:24:31.860Z,6.80
2022-11-16T00:27:02.244Z,5.90
2022-11-16T00:29:32.545Z,6.68
2022-11-16T00:32:03.137Z,6.32
2022-11-16T00:34:33.392Z,6.45
2022-11-16T00:37:03.759Z,6.53
2022-11-16T00:39:36.838Z,6.47
2022-11-16T00:42:07.126Z,6.25
2022-11-16T00:44:37.480Z,7.63
2022-11-16T00:47:07.905Z,7.78
2022-11-16T00:49:38.817Z,6.55
2022-11-16T00:52:09.162Z,5.88
2022-11-16T00:54:39.458Z,5.90
2022-11-16T00:57:09.844Z,7.13
2022-11-16T00:59:40.083Z,6.50
2022-11-16T01:02:10.581Z,6.78
2022-11-16T01:04:41.175Z,6.45
2022-11-16T01:07:12.277Z,6.05
2022-11-16T01:09:42.663Z,5.38
2022-11-16T01:12:13.284Z,6.20
2022-11-16T01:14:46.249Z,4.95
2022-11-16T01:17:16.586Z,5.68
2022-11-16T01:19:46.947Z,4.78
2022-11-16T01:22:17.270Z,5.07
2022-11-16T01:24:47.965Z,5.90
2022-11-16T01:27:18.301Z,4.80
2022-11-16T01:29:48.755Z,5.22
2022-11-16T01:32:19.140Z,4.68
2022-11-16T01:34:49.941Z,3.90
2022-11-16T01:37:20.307Z,2.88
2022-11-16T01:39:51.483Z,2.63
2022-11-16T01:42:24.808Z,2.60
2022-11-16T01:44:57.189Z,2.65
2022-11-16T01:47:28.026Z,3.40
2022-11-16T01:50:16.288Z,2.72
2022-11-16T01:52:57.498Z,2.35
2022-11-16T01:55:31.253Z,2.47
2022-11-16T01:58:02.847Z,2.50
2022-11-16T02:00:33.932Z,1.63
2022-11-16T02:03:04.282Z,2.00
2022-11-16T02:05:50.514Z,1.40
2022-11-16T02:09:16.114Z,0.93
2022-11-16T02:12:11.688Z,0.95
2022-11-16T02:14:53.164Z,0.67
2022-11-16T02:18:14.106Z,0.40
2022-11-16T02:20:52.466Z,0.50
2022-11-16T02:23:41.916Z,0.43
2022-11-16T02:26:23.072Z,0.60
2022-11-16T02:29:08.033Z,0.32
2022-11-16T02:31:42.763Z,0.50
2022-11-16T02:34:16.909Z,0.30
2022-11-16T02:36:51.902Z,0.38
2022-11-16T02:39:27.317Z,0.47
2022-11-16T02:41:59.655Z,0.50
2022-11-16T02:44:34.853Z,0.50
2022-11-16T02:47:09.645Z,0.63
2022-11-16T02:49:45.459Z,0.50
2022-11-16T02:52:18.113Z,0.30
2022-11-16T02:54:48.236Z,0.30
2022-11-16T02:57:37.718Z,0.40
2022-11-16T03:00:10.240Z,0.25
2022-11-16T03:02:54.252Z,0.30
2022-11-16T03:05:33.670Z,0.30
2022-11-16T03:08:15.894Z,0.28
2022-11-16T03:11:10.169Z,0.30
2022-11-16T03:13:41.071Z,0.30
2022-11-16T03:16:27.701Z,0.50
2022-11-16T03:21:59.641Z,0.20
2022-11-16T03:24:30.117Z,0.10
2022-11-16T03:27:25.781Z,0.60
2022-11-16T03:30:04.807Z,0.40
2022-11-16T03:32:49.396Z,0.38
2022-11-16T03:35:34.714Z,0.50
2022-11-16T03:38:08.045Z,0.90
2022-11-16T03:40:40.826Z,0.55
2022-11-16T03:43:11.446Z,0.40
2022-11-16T03:45:41.873Z,0.63
2022-11-16T03:48:12.148Z,0.28
2022-11-16T03:50:43.270Z,0.32
2022-11-16T03:53:13.394Z,0.63
2022-11-16T03:55:49.621Z,0.50
2022-11-16T03:58:20.056Z,0.40
2022-11-16T04:00:50.379Z,0.55
2022-11-16T04:03:21.137Z,0.60
2022-11-16T04:06:09.861Z,1.10
2022-11-16T04:08:58.427Z,1.17
2022-11-16T04:11:47.037Z,0.70
2022-11-16T04:14:41.597Z,0.35
2022-11-16T04:17:37.581Z,0.60
2022-11-16T04:20:31.930Z,0.40
2022-11-16T04:23:35.291Z,0.60
2022-11-16T04:26:08.561Z,0.30
2022-11-16T04:28:39.797Z,0.50
2022-11-16T04:31:28.660Z,0.40
2022-11-16T04:34:17.461Z,0.20
2022-11-16T04:37:06.247Z,0.40
2022-11-16T04:39:36.347Z,0.20
2022-11-16T04:42:19.295Z,0.35
2022-11-16T04:45:07.779Z,0.20
2022-11-16T04:47:37.969Z,0.20
2022-11-16T04:50:08.391Z,0.30
2022-11-16T04:52:38.515Z,0.60
2022-11-16T04:55:09.169Z,0.32
2022-11-16T04:57:39.799Z,0.47
2022-11-16T05:00:10.839Z,0.50
2022-11-16T05:02:41.368Z,0.40
2022-11-16T05:05:12.283Z,0.73
2022-11-16T05:07:43.007Z,0.70
2022-11-16T05:10:14.690Z,0.60
2022-11-16T05:12:44.915Z,0.52
2022-11-16T05:15:15.188Z,0.60
2022-11-16T05:17:45.683Z,0.38
2022-11-16T05:20:34.596Z,0.60
2022-11-16T05:23:05.018Z,0.25
2022-11-16T05:25:36.988Z,0.30
2022-11-16T05:28:07.261Z,0.60
2022-11-16T05:30:37.412Z,0.60
2022-11-16T05:33:07.489Z,0.30
2022-11-16T05:35:37.653Z,0.50
2022-11-16T05:38:07.765Z,0.38
2022-11-16T05:40:38.503Z,0.43
2022-11-16T05:43:08.663Z,0.60
2022-11-16T05:45:38.925Z,1.60
2022-11-16T05:48:09.050Z,1.67
2022-11-16T05:50:42.786Z,1.35
2022-11-16T05:53:13.468Z,0.98
2022-11-16T05:55:43.811Z,0.70
2022-11-16T05:58:13.910Z,0.80
2022-11-16T06:00:47.151Z,0.50
2022-11-16T06:03:17.370Z,0.82
2022-11-16T06:05:47.664Z,0.57
2022-11-16T06:08:17.857Z,0.45
2022-11-16T06:10:49.000Z,0.68
2022-11-16T06:13:19.547Z,1.73
2022-11-16T06:15:55.357Z,1.17
2022-11-16T06:18:25.970Z,0.90
2022-11-16T06:20:56.505Z,1.17
2022-11-16T06:23:26.623Z,1.23
2022-11-16T06:25:57.118Z,0.65
2022-11-16T06:28:28.291Z,0.80
2022-11-16T06:30:58.481Z,1.05
2022-11-16T06:33:33.389Z,1.92
2022-11-16T06:36:04.342Z,1.90
2022-11-16T06:38:34.798Z,2.38
2022-11-16T06:41:05.264Z,2.20
2022-11-16T06:43:35.388Z,1.88
2022-11-16T06:46:05.705Z,1.48
2022-11-16T06:48:36.058Z,1.58
2022-11-16T06:51:06.609Z,1.00
2022-11-16T06:53:36.714Z,1.10
2022-11-16T06:56:07.244Z,0.85
2022-11-16T06:58:37.643Z,1.35
2022-11-16T07:01:09.997Z,1.05
2022-11-16T07:03:40.186Z,0.70
2022-11-16T07:06:12.432Z,0.60
2022-11-16T07:08:42.811Z,0.60
2022-11-16T07:11:12.931Z,0.90
2022-11-16T07:13:43.146Z,1.02
2022-11-16T07:16:13.326Z,0.60
2022-11-16T07:18:43.501Z,0.55
2022-11-16T07:21:15.853Z,0.70
2022-11-16T07:23:45.998Z,0.90
2022-11-16T07:26:16.217Z,0.70
2022-11-16T07:28:48.446Z,0.52
2022-11-16T07:31:18.902Z,0.80
2022-11-16T07:33:49.010Z,1.02
2022-11-16T07:36:19.426Z,0.85
2022-11-16T07:38:49.605Z,0.90
2022-11-16T07:41:20.127Z,0.40
2022-11-16T07:43:53.222Z,1.05
2022-11-16T07:49:15.926Z,0.47
2022-11-16T07:51:46.609Z,0.63
2022-11-16T07:54:16.729Z,0.60
2022-11-16T07:56:46.796Z,0.40
2022-11-16T07:59:17.075Z,0.70
2022-11-16T08:01:48.133Z,0.40
2022-11-16T08:04:18.468Z,0.40
2022-11-16T08:06:51.090Z,0.40
2022-11-16T08:09:21.348Z,0.55
2022-11-16T08:11:55.065Z,0.40
2022-11-16T08:14:25.231Z,0.57
2022-11-16T08:16:55.409Z,0.65
2022-11-16T08:19:25.530Z,0.60
2022-11-16T08:21:55.772Z,0.40
2022-11-16T08:24:26.075Z,0.40
2022-11-16T08:26:57.502Z,0.30
2022-11-16T08:29:30.185Z,0.63
2022-11-16T08:32:00.362Z,0.50
2022-11-16T08:34:30.540Z,0.52
2022-11-16T08:37:00.764Z,0.65
2022-11-16T08:39:30.921Z,0.40
2022-11-16T08:42:01.327Z,0.80
2022-11-16T08:44:31.579Z,0.60
2022-11-16T08:47:01.717Z,0.68
2022-11-16T08:49:31.798Z,0.60
2022-11-16T08:52:01.910Z,0.93
2022-11-16T08:54:32.478Z,1.10
2022-11-16T08:57:02.585Z,1.40
2022-11-16T08:59:32.911Z,1.35
2022-11-16T09:02:03.121Z,3.97
2022-11-16T09:04:37.016Z,4.18
2022-11-16T09:07:07.496Z,8.00
2022-11-16T09:09:37.660Z,3.80
2022-11-16T09:12:07.872Z,2.53
2022-11-16T09:14:38.005Z,7.40
2022-11-16T09:17:11.123Z,2.03
2022-11-16T09:19:41.287Z,3.28
2022-11-16T09:22:13.516Z,1.83
2022-11-16T09:24:45.473Z,1.00
2022-11-16T09:27:19.147Z,3.33
2022-11-16T09:29:56.501Z,1.40
2022-11-16T09:32:27.862Z,1.10
2022-11-16T09:34:58.918Z,2.80
2022-11-16T09:37:29.828Z,1.80
2022-11-16T09:40:01.148Z,1.02
2022-11-16T09:43:09.116Z,1.60
2022-11-16T09:45:50.914Z,0.70
2022-11-16T09:48:23.933Z,0.60
2022-11-16T09:51:08.576Z,1.40
2022-11-16T09:54:20.696Z,1.00
2022-11-16T09:56:57.701Z,1.17
2022-11-16T09:59:42.143Z,2.97
2022-11-16T10:02:36.201Z,1.05
2022-11-16T10:05:23.578Z,2.88
2022-11-16T10:08:13.976Z,2.33
2022-11-16T10:11:23.060Z,2.30
2022-11-16T10:14:23.402Z,0.98
2022-11-16T10:17:26.916Z,1.10
2022-11-16T10:20:17.277Z,0.98
2022-11-16T10:22:58.774Z,0.80
2022-11-16T10:25:48.685Z,0.70
2022-11-16T10:28:34.283Z,0.82
2022-11-16T10:31:37.057Z,0.93
2022-11-16T10:34:14.149Z,1.63
2022-11-16T10:36:46.427Z,5.97
2022-11-16T10:39:22.135Z,1.90
2022-11-16T10:41:54.610Z,1.52
2022-11-16T10:44:39.051Z,1.55
2022-11-16T10:47:35.485Z,2.40
2022-11-16T10:52:48.261Z,1.70
2022-11-16T10:55:22.566Z,2.13
2022-11-16T10:58:04.311Z,1.65
2022-11-16T11:00:40.248Z,1.83
2022-11-16T11:03:12.112Z,1.50
2022-11-16T11:05:55.258Z,2.22
2022-11-16T11:08:33.364Z,1.52
2022-11-16T11:11:24.877Z,1.40
2022-11-16T11:14:21.834Z,3.28
2022-11-16T11:16:54.886Z,4.38
2022-11-16T11:19:27.953Z,1.75
2022-11-16T11:22:01.239Z,1.40
2022-11-16T11:24:45.725Z,2.03
2022-11-16T11:27:23.375Z,1.48
2022-11-16T11:29:55.817Z,1.90
2022-11-16T11:32:39.028Z,1.92
2022-11-16T11:35:29.314Z,1.30
2022-11-16T11:38:07.748Z,1.70
2022-11-16T11:40:38.792Z,3.22
2022-11-16T11:43:22.365Z,3.42
2022-11-16T11:46:09.246Z,2.20
2022-11-16T11:49:00.189Z,3.08
2022-11-16T11:51:35.249Z,4.00
2022-11-16T11:54:08.155Z,2.58
2022-11-16T11:56:38.763Z,2.50
2022-11-16T11:59:15.965Z,3.17
2022-11-16T12:02:00.783Z,4.60
2022-11-16T12:04:50.180Z,3.20
2022-11-16T12:07:35.429Z,13.50
2022-11-16T12:10:25.584Z,15.32
2022-11-16T12:13:26.483Z,6.05
2022-11-16T12:16:27.326Z,3.15
2022-11-16T12:19:26.957Z,2.90
2022-11-16T12:22:11.982Z,4.20
2022-11-16T12:24:51.095Z,7.70
2022-11-16T12:27:32.883Z,4.65
2022-11-16T12:30:21.474Z,4.60
2022-11-16T12:33:05.242Z,5.47
2022-11-16T12:36:03.402Z,5.18
2022-11-16T12:38:42.583Z,3.33
2022-11-16T12:41:24.758Z,2.80
2022-11-16T12:44:08.123Z,3.00
2022-11-16T12:46:41.178Z,4.45
2022-11-16T12:49:56.045Z,2.95
2022-11-16T12:52:44.221Z,3.55
2022-11-16T12:55:33.810Z,3.10
2022-11-16T12:58:27.972Z,4.18
2022-11-16T13:01:29.085Z,4.47
2022-11-16T13:04:12.778Z,2.90
2022-11-16T13:07:10.878Z,2.30
2022-11-16T13:09:48.038Z,3.05
2022-11-16T13:12:23.732Z,3.17
2022-11-16T13:14:56.395Z,2.58
2022-11-16T13:17:33.684Z,2.25
2022-11-16T13:20:32.556Z,1.65
2022-11-16T13:23:40.188Z,3.72
2022-11-16T13:26:18.650Z,2.45
2022-11-16T13:29:00.418Z,2.10
2022-11-16T13:31:44.661Z,3.45
2022-11-16T13:34:24.998Z,1.98
2022-11-16T13:36:55.218Z,2.55
2022-11-16T13:39:56.426Z,2.33
2022-11-16T13:42:27.194Z,1.75
2022-11-16T13:45:17.982Z,1.67
2022-11-16T13:47:54.022Z,1.95
2022-11-16T13:50:37.753Z,1.23
2022-11-16T13:56:09.376Z,1.17
2022-11-16T13:58:46.473Z,0.90
2022-11-16T14:03:52.611Z,0.90
2022-11-16T14:06:22.734Z,0.82
2022-11-16T14:08:56.704Z,1.73
2022-11-16T14:11:39.537Z,1.10
2022-11-16T14:14:33.906Z,1.60
2022-11-16T14:17:04.151Z,1.15
2022-11-16T14:19:44.428Z,1.50
2022-11-16T14:22:20.374Z,1.10
2022-11-16T14:25:06.770Z,1.30
2022-11-16T14:27:57.131Z,2.25
2022-11-16T14:30:51.149Z,2.90
2022-11-16T14:33:39.501Z,1.52
2022-11-16T14:36:11.469Z,1.25
2022-11-16T14:38:43.857Z,1.33
2022-11-16T14:41:27.342Z,1.25
2022-11-16T14:43:58.709Z,1.70
2022-11-16T14:46:34.920Z,6.20
2022-11-16T14:49:05.473Z,5.53
2022-11-16T14:51:39.257Z,2.47
2022-11-16T14:54:40.498Z,1.60
2022-11-16T14:57:19.550Z,2.53
2022-11-16T15:00:06.391Z,3.00
2022-11-16T15:05:07.929Z,2.83
2022-11-16T15:07:38.649Z,2.20
2022-11-16T15:10:16.642Z,2.20
2022-11-16T15:12:51.793Z,1.35
2022-11-16T15:15:28.193Z,1.77
2022-11-16T15:18:01.060Z,4.45
2022-11-16T15:20:34.089Z,2.53
2022-11-16T15:23:06.256Z,6.05
2022-11-16T15:25:54.448Z,4.82
2022-11-16T15:28:27.353Z,3.47
2022-11-16T15:31:00.850Z,2.53
2022-11-16T15:33:39.366Z,3.58
2022-11-16T15:36:38.005Z,6.53
2022-11-16T15:39:20.641Z,3.15
2022-11-16T15:41:52.041Z,6.05
2022-11-16T15:44:23.766Z,4.65
2022-11-16T15:46:56.187Z,3.28
2022-11-16T15:49:32.054Z,3.75
2022-11-16T15:52:02.778Z,7.00
2022-11-16T15:55:04.779Z,6.63
2022-11-16T15:57:35.250Z,7.30
2022-11-16T16:00:05.808Z,5.35
2022-11-16T16:02:36.151Z,3.08
2022-11-16T16:05:06.797Z,2.83
2022-11-16T16:07:41.418Z,2.03
2022-11-16T16:10:24.854Z,3.20
2022-11-16T16:12:59.681Z,1.85
2022-11-16T16:15:36.324Z,2.42
2022-11-16T16:18:36.833Z,2.22
2022-11-16T16:21:07.252Z,2.58
2022-11-16T16:23:48.628Z,2.50
2022-11-16T16:26:18.753Z,2.63
2022-11-16T16:28:49.725Z,3.05
2022-11-16T16:31:20.010Z,2.63
2022-11-16T16:33:50.255Z,2.78
2022-11-16T16:36:20.625Z,1.85
2022-11-16T16:38:50.781Z,3.58
2022-11-16T16:41:24.359Z,3.22
2022-11-16T16:43:55.004Z,3.25
2022-11-16T16:46:25.235Z,3.33
2022-11-16T16:48:55.363Z,3.50
2022-11-16T16:51:25.585Z,2.90
2022-11-16T16:53:55.721Z,2.83
2022-11-16T16:56:25.980Z,2.30
2022-11-16T16:58:56.063Z,2.33
2022-11-16T17:01:26.801Z,2.92
2022-11-16T17:03:56.916Z,2.50
2022-11-16T17:06:27.086Z,1.63
2022-11-16T17:08:57.951Z,3.30
2022-11-16T17:11:28.999Z,3.92
2022-11-16T17:13:59.569Z,2.42
2022-11-16T17:16:29.689Z,3.13
2022-11-16T17:18:59.826Z,2.83
2022-11-16T17:21:30.112Z,3.40
2022-11-16T17:24:00.342Z,3.20
2022-11-16T17:26:30.489Z,2.20
2022-11-16T17:29:00.581Z,3.72
2022-11-16T17:31:30.710Z,5.57
2022-11-16T17:34:00.852Z,5.13
2022-11-16T17:36:30.962Z,4.00
2022-11-16T17:39:01.262Z,5.47
2022-11-16T17:41:31.461Z,4.57
2022-11-16T17:44:01.643Z,5.68
2022-11-16T17:46:32.014Z,3.88
2022-11-16T17:49:02.274Z,4.25
2022-11-16T17:51:32.487Z,4.45
2022-11-16T17:54:02.705Z,3.92
2022-11-16T17:56:32.832Z,3.60
2022-11-16T17:59:02.943Z,2.53
2022-11-16T18:01:34.046Z,3.67
2022-11-16T18:04:04.986Z,4.15
2022-11-16T18:06:36.003Z,5.32
2022-11-16T18:09:06.494Z,4.47
2022-11-16T18:11:36.634Z,5.55
2022-11-16T18:14:07.580Z,3.80
2022-11-16T18:16:37.904Z,7.25
2022-11-16T18:19:08.103Z,6.28
2022-11-16T18:21:40.807Z,5.15
2022-11-16T18:24:12.068Z,4.35
2022-11-16T18:26:44.272Z,3.35
2022-11-16T18:29:16.220Z,2.20
2022-11-16T18:31:46.433Z,1.98
2022-11-16T18:34:17.218Z,11.40
2022-11-16T18:36:49.939Z,16.38
2022-11-16T18:39:20.001Z,4.80
2022-11-16T18:41:55.114Z,5.70
2022-11-16T18:44:25.794Z,3.38
2022-11-16T18:46:55.939Z,3.08
2022-11-16T18:49:26.028Z,3.35
2022-11-16T18:51:56.300Z,2.83
2022-11-16T18:54:26.505Z,5.57
2022-11-16T18:56:57.082Z,2.90
2022-11-16T18:59:27.186Z,2.28
2022-11-16T19:01:57.368Z,3.58
2022-11-16T19:04:29.432Z,4.05
2022-11-16T19:06:59.552Z,5.13
2022-11-16T19:09:29.890Z,7.35
2022-11-16T19:12:01.342Z,5.95
2022-11-16T19:14:31.429Z,3.95
2022-11-16T19:17:01.667Z,3.97
2022-11-16T19:19:31.920Z,2.33
2022-11-16T19:22:02.171Z,2.08
2022-11-16T19:24:32.667Z,2.53
2022-11-16T19:27:03.143Z,2.63
2022-11-16T19:29:33.359Z,2.28
2022-11-16T19:32:03.802Z,1.80
2022-11-16T19:34:34.147Z,2.13
2022-11-16T19:37:04.310Z,2.10
2022-11-16T19:39:34.477Z,1.80
2022-11-16T19:42:04.788Z,1.63
2022-11-16T19:44:34.880Z,1.75
2022-11-16T19:47:06.491Z,2.20
2022-11-16T19:49:36.575Z,1.95
2022-11-16T19:52:06.715Z,1.58
2022-11-16T19:54:36.793Z,2.00
2022-11-16T19:57:07.015Z,2.00
2022-11-16T19:59:37.511Z,2.28
2022-11-16T20:02:10.315Z,1.92
2022-11-16T20:04:40.435Z,3.00
2022-11-16T20:07:12.017Z,4.10
2022-11-16T20:09:42.446Z,11.50
2022-11-16T20:12:12.580Z,4.45
2022-11-16T20:14:42.748Z,3.67
2022-11-16T20:17:13.528Z,8.48
2022-11-16T20:19:43.714Z,4.97
2022-11-16T20:22:13.864Z,3.88
2022-11-16T20:24:44.023Z,4.93
2022-11-16T20:27:14.133Z,3.58
2022-11-16T20:29:44.327Z,2.65
2022-11-16T20:32:14.402Z,5.43
2022-11-16T20:34:44.661Z,5.53
2022-11-16T20:37:16.476Z,4.88
2022-11-16T20:39:47.363Z,3.25
2022-11-16T20:42:17.422Z,3.03
2022-11-16T20:44:47.537Z,6.45
2022-11-16T20:47:18.682Z,4.10
2022-11-16T20:49:48.795Z,6.25
2022-11-16T20:52:19.266Z,4.10
2022-11-16T20:54:49.398Z,9.25
2022-11-16T20:57:19.634Z,8.18
2022-11-16T20:59:49.782Z,6.60
2022-11-16T21:02:20.093Z,5.13
2022-11-16T21:04:52.814Z,3.53
2022-11-16T21:07:26.385Z,3.60
2022-11-16T21:10:15.220Z,2.75
2022-11-16T21:13:04.306Z,2.08
2022-11-16T21:15:34.460Z,2.35
2022-11-16T21:18:04.781Z,2.80
2022-11-16T21:20:35.125Z,3.35
2022-11-16T21:23:05.313Z,3.50
2022-11-16T21:25:36.826Z,2.38
2022-11-16T21:28:06.971Z,2.72
2022-11-16T21:30:37.032Z,2.47
2022-11-16T21:33:07.187Z,1.75
2022-11-16T21:35:37.256Z,1.65
2022-11-16T21:38:07.399Z,2.55
2022-11-16T21:40:37.692Z,1.70
2022-11-16T21:43:07.862Z,1.60
2022-11-16T21:45:38.028Z,1.40
2022-11-16T21:48:08.224Z,1.70
2022-11-16T21:50:38.837Z,2.08
2022-11-16T21:53:09.778Z,1.45
2022-11-16T21:55:39.891Z,2.20
2022-11-16T21:58:10.038Z,1.75
2022-11-16T22:00:40.096Z,1.30
2022-11-16T22:03:10.407Z,2.03
2022-11-16T22:05:58.905Z,1.30
2022-11-16T22:08:29.085Z,1.30
2022-11-16T22:14:05.589Z,1.60
2022-11-16T22:16:36.268Z,2.22
2022-11-16T22:19:06.488Z,1.48
2022-11-16T22:21:36.836Z,1.30
2022-11-16T22:24:07.501Z,1.80
2022-11-16T22:26:38.489Z,1.77
2022-11-16T22:29:08.736Z,2.30
2022-11-16T22:31:39.112Z,2.08
2022-11-16T22:34:09.393Z,2.00
2022-11-16T22:36:39.716Z,1.98
2022-11-16T22:39:10.248Z,2.83
2022-11-16T22:41:40.603Z,1.50
2022-11-16T22:44:10.878Z,1.40
2022-11-16T22:46:41.228Z,1.33
2022-11-16T22:49:11.673Z,2.30
2022-11-16T22:51:42.156Z,1.40
2022-11-16T22:54:13.203Z,1.63
2022-11-16T22:56:43.733Z,1.38
2022-11-16T22:59:14.750Z,1.48
2022-11-16T23:01:44.993Z,1.25
2022-11-16T23:04:15.379Z,1.63
2022-11-16T23:06:45.668Z,1.48
2022-11-16T23:09:16.089Z,1.40
2022-11-16T23:12:04.852Z,1.45
2022-11-16T23:14:53.645Z,1.48
2022-11-16T23:17:23.947Z,1.52
2022-11-16T23:20:17.458Z,1.40
2022-11-16T23:23:06.700Z,1.05
2022-11-16T23:25:55.761Z,1.73
2022-11-16T23:28:26.432Z,1.40
2022-11-16T23:30:56.763Z,1.13
2022-11-16T23:33:44.101Z,1.40
2022-11-16T23:36:15.017Z,1.02
2022-11-16T23:38:45.274Z,1.70
2022-11-16T23:41:33.857Z,1.20
2022-11-16T23:44:04.348Z,1.40
2022-11-16T23:46:34.768Z,1.38
2022-11-16T23:49:05.206Z,1.60
2022-11-16T23:51:35.505Z,1.50
2022-11-16T23:54:07.043Z,2.50
2022-11-16T23:56:37.292Z,1.55
2022-11-16T23:59:08.126Z,1.98
